createdAt,value
2023-04-07T00:00:32.050Z,53.80
2023-04-07T00:02:59.786Z,53.80
2023-04-07T00:05:27.082Z,54.00
2023-04-07T00:07:56.933Z,54.00
2023-04-07T00:10:25.543Z,54.20
2023-04-07T00:12:53.046Z,54.30
2023-04-07T00:15:20.678Z,54.00
2023-04-07T00:17:47.829Z,54.40
2023-04-07T00:20:15.601Z,54.20
2023-04-07T00:22:43.337Z,53.90
2023-04-07T00:25:10.924Z,53.90
2023-04-07T00:27:39.276Z,53.80
2023-04-07T00:30:08.783Z,54.00
2023-04-07T00:32:36.649Z,54.10
2023-04-07T00:35:03.907Z,54.10
2023-04-07T00:37:31.176Z,54.40
2023-04-07T00:39:59.441Z,54.50
2023-04-07T00:42:26.838Z,54.70
2023-04-07T00:44:54.259Z,54.60
2023-04-07T00:47:21.561Z,54.60
2023-04-07T00:49:53.764Z,54.80
2023-04-07T00:52:27.560Z,54.90
2023-04-07T00:54:59.444Z,54.90
2023-04-07T00:57:27.518Z,55.10
2023-04-07T00:59:56.480Z,55.10
2023-04-07T01:02:29.981Z,55.10
2023-04-07T01:05:24.563Z,54.70
2023-04-07T01:08:13.053Z,54.40
2023-04-07T01:10:53.308Z,54.30
2023-04-07T01:13:41.644Z,54.30
2023-04-07T01:16:15.995Z,54.40
2023-04-07T01:18:46.776Z,54.50
2023-04-07T01:21:17.631Z,54.20
2023-04-07T01:24:23.553Z,54.30
2023-04-07T01:26:51.772Z,54.60
2023-04-07T01:29:35.763Z,54.60
2023-04-07T01:32:06.579Z,55.10
2023-04-07T01:34:34.495Z,55.30
2023-04-07T01:37:04.011Z,55.50
2023-04-07T01:39:32.092Z,55.60
2023-04-07T01:42:02.453Z,55.60
2023-04-07T01:44:32.359Z,55.60
2023-04-07T01:47:01.228Z,55.70
2023-04-07T01:49:30.269Z,56.00
2023-04-07T01:51:58.510Z,56.10
2023-04-07T01:54:27.369Z,56.00
2023-04-07T01:56:54.639Z,56.10
2023-04-07T01:59:22.125Z,56.20
2023-04-07T02:01:49.303Z,56.40
2023-04-07T02:04:22.922Z,56.50
2023-04-07T02:07:03.242Z,56.90
2023-04-07T02:09:34.044Z,57.10
2023-04-07T02:12:05.261Z,57.40
2023-04-07T02:14:33.514Z,57.40
2023-04-07T02:17:02.854Z,57.80
2023-04-07T02:19:30.726Z,58.20
2023-04-07T02:22:00.055Z,58.30
2023-04-07T02:24:27.892Z,58.40
2023-04-07T02:26:55.037Z,58.80
2023-04-07T02:29:22.429Z,59.00
2023-04-07T02:31:49.674Z,59.00
2023-04-07T02:34:17.140Z,59.10
2023-04-07T02:36:44.528Z,59.00
2023-04-07T02:39:11.792Z,59.10
2023-04-07T02:41:40.938Z,59.40
2023-04-07T02:44:08.237Z,59.80
2023-04-07T02:46:51.422Z,59.70
2023-04-07T02:49:18.492Z,59.90
2023-04-07T02:51:47.120Z,60.60
2023-04-07T02:54:14.162Z,60.90
2023-04-07T02:56:41.752Z,61.20
2023-04-07T02:59:09.859Z,61.50
2023-04-07T03:01:37.208Z,60.80
2023-04-07T03:04:05.064Z,60.30
2023-04-07T03:06:33.730Z,60.10
2023-04-07T03:09:01.449Z,59.90
2023-04-07T03:11:28.852Z,59.80
2023-04-07T03:13:56.135Z,60.00
2023-04-07T03:16:31.075Z,59.60
2023-04-07T03:21:44.951Z,59.10
2023-04-07T03:24:12.181Z,59.10
2023-04-07T03:26:39.617Z,59.70
2023-04-07T03:29:07.779Z,59.40
2023-04-07T03:31:35.178Z,59.70
2023-04-07T03:34:02.933Z,60.10
2023-04-07T03:36:32.033Z,60.70
2023-04-07T03:38:59.689Z,61.40
2023-04-07T03:41:26.891Z,61.60
2023-04-07T03:43:54.194Z,62.70
2023-04-07T03:46:22.398Z,62.00
2023-04-07T03:48:49.961Z,62.70
2023-04-07T03:51:17.590Z,63.00
2023-04-07T03:53:45.056Z,63.50
2023-04-07T03:56:12.711Z,64.30
2023-04-07T03:58:42.855Z,64.60
2023-04-07T04:01:10.786Z,65.30
2023-04-07T04:03:38.783Z,66.00
2023-04-07T04:06:06.506Z,66.60
2023-04-07T04:08:33.821Z,67.20
2023-04-07T04:11:01.920Z,68.40
2023-04-07T04:13:29.461Z,69.50
2023-04-07T04:15:57.372Z,70.10
2023-04-07T04:18:24.532Z,70.80
2023-04-07T04:20:52.339Z,70.80
2023-04-07T04:23:19.488Z,71.40
2023-04-07T04:25:47.161Z,72.00
2023-04-07T04:28:14.707Z,72.50
2023-04-07T04:30:42.278Z,72.60
2023-04-07T04:33:09.767Z,73.50
2023-04-07T04:35:37.492Z,73.60
2023-04-07T04:38:05.054Z,72.30
2023-04-07T04:40:32.469Z,71.70
2023-04-07T04:42:59.631Z,71.30
2023-04-07T04:45:27.053Z,71.60
2023-04-07T04:47:54.612Z,71.70
2023-04-07T04:50:21.729Z,71.40
2023-04-07T04:52:49.170Z,71.60
2023-04-07T04:55:16.505Z,72.10
2023-04-07T04:57:43.758Z,71.70
2023-04-07T05:00:11.458Z,71.80
2023-04-07T05:02:38.699Z,71.10
2023-04-07T05:05:06.808Z,69.40
2023-04-07T05:07:34.281Z,68.80
2023-04-07T05:10:01.695Z,66.60
2023-04-07T05:12:29.535Z,66.60
2023-04-07T05:14:56.729Z,66.70
2023-04-07T05:17:24.538Z,66.80
2023-04-07T05:19:52.009Z,67.10
2023-04-07T05:22:19.413Z,67.90
2023-04-07T05:24:46.731Z,68.10
2023-04-07T05:27:14.241Z,68.90
2023-04-07T05:29:41.536Z,69.10
2023-04-07T05:32:08.889Z,69.20
2023-04-07T05:34:36.315Z,69.40
2023-04-07T05:37:03.730Z,69.50
2023-04-07T05:39:31.012Z,69.60
2023-04-07T05:41:58.450Z,70.50
2023-04-07T05:44:26.069Z,71.20
2023-04-07T05:46:53.381Z,71.80
2023-04-07T05:49:20.950Z,71.80
2023-04-07T05:51:49.188Z,71.70
2023-04-07T05:54:16.746Z,71.20
2023-04-07T05:56:44.233Z,71.70
2023-04-07T05:59:11.808Z,70.90
2023-04-07T06:01:39.888Z,70.40
2023-04-07T06:04:07.462Z,70.20
2023-04-07T06:06:34.825Z,70.50
2023-04-07T06:09:02.145Z,70.80
2023-04-07T06:11:29.471Z,71.10
2023-04-07T06:13:57.288Z,70.80
2023-04-07T06:16:27.379Z,70.60
2023-04-07T06:18:54.673Z,70.80
2023-04-07T06:21:22.116Z,71.00
2023-04-07T06:23:51.656Z,71.10
2023-04-07T06:26:19.249Z,71.10
2023-04-07T06:28:46.943Z,71.10
2023-04-07T06:31:14.456Z,71.70
2023-04-07T06:33:41.820Z,71.70
2023-04-07T06:36:09.007Z,72.10
2023-04-07T06:38:36.538Z,72.70
2023-04-07T06:41:04.011Z,73.50
2023-04-07T06:43:31.697Z,73.90
2023-04-07T06:45:58.995Z,73.80
2023-04-07T06:48:26.132Z,74.30
2023-04-07T06:50:53.295Z,74.40
2023-04-07T06:53:20.645Z,74.10
2023-04-07T06:55:48.012Z,73.90
2023-04-07T06:58:15.213Z,73.50
2023-04-07T07:00:42.427Z,73.70
2023-04-07T07:03:13.381Z,74.40
2023-04-07T07:05:40.647Z,74.10
2023-04-07T07:08:22.268Z,74.00
2023-04-07T07:10:49.713Z,73.40
2023-04-07T07:13:18.366Z,72.60
2023-04-07T07:15:46.038Z,72.60
2023-04-07T07:18:13.416Z,73.10
2023-04-07T07:20:40.667Z,73.30
2023-04-07T07:23:07.868Z,73.20
2023-04-07T07:25:35.549Z,73.20
2023-04-07T07:28:03.025Z,73.80
2023-04-07T07:30:30.561Z,73.50
2023-04-07T07:32:58.061Z,73.70
2023-04-07T07:35:25.625Z,72.90
2023-04-07T07:37:53.286Z,73.40
2023-04-07T07:40:21.070Z,73.80
2023-04-07T07:42:48.564Z,74.30
2023-04-07T07:45:17.806Z,76.30
2023-04-07T07:47:44.973Z,77.80
2023-04-07T07:50:12.512Z,78.60
2023-04-07T07:52:40.084Z,80.80
2023-04-07T07:55:07.774Z,80.50
2023-04-07T07:57:35.703Z,80.40
2023-04-07T08:00:04.614Z,80.70
2023-04-07T08:02:34.409Z,79.80
2023-04-07T08:05:02.003Z,78.40
2023-04-07T08:07:29.143Z,76.50
2023-04-07T08:09:56.420Z,76.80
2023-04-07T08:12:23.772Z,77.30
2023-04-07T08:14:53.937Z,80.60
2023-04-07T08:17:21.294Z,81.80
2023-04-07T08:19:48.694Z,86.10
2023-04-07T08:22:15.823Z,85.50
2023-04-07T08:24:43.003Z,87.10
2023-04-07T08:27:10.356Z,87.90
2023-04-07T08:29:37.840Z,87.90
2023-04-07T08:32:05.524Z,87.10
2023-04-07T08:34:32.827Z,88.00
2023-04-07T08:37:00.091Z,88.40
2023-04-07T08:39:28.784Z,90.20
2023-04-07T08:41:57.255Z,88.60
2023-04-07T08:44:28.258Z,90.20
2023-04-07T08:47:01.286Z,88.80
2023-04-07T08:49:30.885Z,89.90
2023-04-07T08:52:00.895Z,90.20
2023-04-07T08:54:29.064Z,89.70
2023-04-07T08:56:56.802Z,90.80
2023-04-07T08:59:27.074Z,91.30
2023-04-07T09:01:55.128Z,91.20
2023-04-07T09:04:25.766Z,91.60
2023-04-07T09:06:53.007Z,92.00
2023-04-07T09:09:20.090Z,92.50
2023-04-07T09:11:48.760Z,92.80
2023-04-07T09:14:16.583Z,93.40
2023-04-07T09:16:43.862Z,94.50
2023-04-07T09:19:11.552Z,97.20
2023-04-07T09:21:50.309Z,98.70
2023-04-07T09:24:28.804Z,99.40
2023-04-07T09:27:17.254Z,99.60
2023-04-07T09:29:46.192Z,99.90
2023-04-07T09:32:22.055Z,99.90
2023-04-07T09:34:59.392Z,99.90
2023-04-07T09:37:26.969Z,99.90
2023-04-07T09:39:54.479Z,99.90
2023-04-07T09:42:21.921Z,99.90
2023-04-07T09:44:49.505Z,99.90
2023-04-07T09:47:18.397Z,99.90
2023-04-07T09:49:54.339Z,99.90
2023-04-07T09:52:53.628Z,99.90
2023-04-07T09:55:22.922Z,99.90
2023-04-07T09:57:58.070Z,99.90
2023-04-07T10:00:25.850Z,99.90
2023-04-07T10:02:55.025Z,99.90
2023-04-07T10:05:22.818Z,99.90
2023-04-07T10:07:52.792Z,99.90
2023-04-07T10:10:19.988Z,99.90
2023-04-07T10:12:50.419Z,99.90
2023-04-07T10:15:17.989Z,99.90
2023-04-07T10:17:48.680Z,99.90
2023-04-07T10:20:21.416Z,99.90
2023-04-07T10:23:10.418Z,99.90
2023-04-07T10:25:40.394Z,99.90
2023-04-07T10:28:12.066Z,99.90
2023-04-07T10:30:40.214Z,99.90
2023-04-07T10:33:07.753Z,99.90
2023-04-07T10:36:07.481Z,99.90
2023-04-07T10:38:35.168Z,99.90
2023-04-07T10:41:36.699Z,99.90
2023-04-07T10:44:05.989Z,99.90
2023-04-07T10:46:45.499Z,99.90
2023-04-07T10:49:14.427Z,99.90
2023-04-07T10:51:45.814Z,99.90
2023-04-07T10:54:23.355Z,99.90
2023-04-07T10:57:03.424Z,99.90
2023-04-07T10:59:31.279Z,99.90
2023-04-07T11:02:17.986Z,99.90
2023-04-07T11:04:47.307Z,99.90
2023-04-07T11:07:16.608Z,99.90
2023-04-07T11:09:44.628Z,99.90
2023-04-07T11:12:25.450Z,99.90
2023-04-07T11:14:53.973Z,99.90
2023-04-07T11:17:21.577Z,99.90
2023-04-07T11:19:55.162Z,99.90
2023-04-07T11:22:29.862Z,99.90
2023-04-07T11:24:57.918Z,99.90
2023-04-07T11:27:27.322Z,99.90
2023-04-07T11:29:54.915Z,99.90
2023-04-07T11:32:30.077Z,99.90
2023-04-07T11:34:58.002Z,99.90
2023-04-07T11:37:27.433Z,99.90
2023-04-07T11:39:56.274Z,99.90
2023-04-07T11:42:38.291Z,99.90
2023-04-07T11:45:08.255Z,99.90
2023-04-07T11:47:37.430Z,99.90
2023-04-07T11:50:04.646Z,99.90
2023-04-07T11:52:42.795Z,99.90
2023-04-07T11:55:24.632Z,99.90
2023-04-07T11:57:52.286Z,99.90
2023-04-07T12:00:20.823Z,99.90
2023-04-07T12:02:48.152Z,99.90
2023-04-07T12:05:16.083Z,99.90
2023-04-07T12:07:53.689Z,99.90
2023-04-07T12:10:22.701Z,99.90
2023-04-07T12:12:50.273Z,99.90
2023-04-07T12:15:18.372Z,99.90
2023-04-07T12:17:47.800Z,99.90
2023-04-07T12:20:16.520Z,99.90
2023-04-07T12:22:44.027Z,99.90
2023-04-07T12:25:13.457Z,99.90
2023-04-07T12:27:43.670Z,99.90
2023-04-07T12:30:13.216Z,99.90
2023-04-07T12:32:41.183Z,99.90
2023-04-07T12:35:08.508Z,99.90
2023-04-07T12:37:35.979Z,99.90
2023-04-07T12:40:03.446Z,99.90
2023-04-07T12:42:30.542Z,99.90
2023-04-07T12:44:58.131Z,99.90
2023-04-07T12:47:25.752Z,99.90
2023-04-07T12:49:52.862Z,99.90
2023-04-07T12:52:20.112Z,99.90
2023-04-07T12:54:47.952Z,99.90
2023-04-07T12:57:16.541Z,99.90
2023-04-07T12:59:43.872Z,99.90
2023-04-07T13:02:13.865Z,99.90
2023-04-07T13:04:43.928Z,99.90
2023-04-07T13:07:11.032Z,99.90
2023-04-07T13:09:38.160Z,99.90
2023-04-07T13:12:05.431Z,99.90
2023-04-07T13:14:32.953Z,99.90
2023-04-07T13:17:00.067Z,99.90
2023-04-07T13:19:27.677Z,99.90
2023-04-07T13:21:55.296Z,96.20
2023-04-07T13:24:23.268Z,92.50
2023-04-07T13:26:52.336Z,88.20
2023-04-07T13:29:19.984Z,87.60
2023-04-07T13:31:48.562Z,87.80
2023-04-07T13:34:16.433Z,91.50
2023-04-07T13:36:43.699Z,88.60
2023-04-07T13:39:11.232Z,83.20
2023-04-07T13:41:38.769Z,81.10
2023-04-07T13:44:06.342Z,80.60
2023-04-07T13:46:33.971Z,81.60
2023-04-07T13:49:01.308Z,80.10
2023-04-07T13:51:40.511Z,80.00
2023-04-07T13:54:07.896Z,81.20
2023-04-07T13:56:35.783Z,81.30
2023-04-07T13:59:03.403Z,83.00
2023-04-07T14:01:30.474Z,85.00
2023-04-07T14:04:00.873Z,86.00
2023-04-07T14:06:28.825Z,86.80
2023-04-07T14:08:55.934Z,90.30
2023-04-07T14:11:23.723Z,90.50
2023-04-07T14:13:53.008Z,92.50
2023-04-07T14:16:21.380Z,93.20
2023-04-07T14:18:49.598Z,93.10
2023-04-07T14:21:17.058Z,93.50
2023-04-07T14:23:44.523Z,93.20
2023-04-07T14:26:12.604Z,93.10
2023-04-07T14:28:41.177Z,93.20
2023-04-07T14:31:13.408Z,93.10
2023-04-07T14:33:41.021Z,93.70
2023-04-07T14:36:08.805Z,93.90
2023-04-07T14:38:36.198Z,93.00
2023-04-07T14:41:10.022Z,92.50
2023-04-07T14:43:38.728Z,91.30
2023-04-07T14:46:06.651Z,90.50
2023-04-07T14:48:34.223Z,91.40
2023-04-07T14:51:08.684Z,91.90
2023-04-07T14:53:36.955Z,93.10
2023-04-07T14:56:10.974Z,93.60
2023-04-07T14:58:39.167Z,95.00
2023-04-07T15:01:07.061Z,95.80
2023-04-07T15:03:38.018Z,97.60
2023-04-07T15:06:10.192Z,99.70
2023-04-07T15:08:38.747Z,99.90
2023-04-07T15:11:07.461Z,99.90
2023-04-07T15:13:35.158Z,99.90
2023-04-07T15:16:13.801Z,99.90
2023-04-07T15:18:44.588Z,99.90
2023-04-07T15:21:12.482Z,99.90
2023-04-07T15:23:40.716Z,99.90
2023-04-07T15:26:14.352Z,99.90
2023-04-07T15:28:45.522Z,99.90
2023-04-07T15:31:13.065Z,99.90
2023-04-07T15:33:47.006Z,99.90
2023-04-07T15:36:21.228Z,99.90
2023-04-07T15:38:50.572Z,99.90
2023-04-07T15:41:18.109Z,99.90
2023-04-07T15:43:45.238Z,99.90
2023-04-07T15:46:12.377Z,99.90
2023-04-07T15:48:39.561Z,99.80
2023-04-07T15:51:06.713Z,96.50
2023-04-07T15:53:34.064Z,92.90
2023-04-07T15:56:01.978Z,89.30
2023-04-07T15:58:31.347Z,86.20
2023-04-07T16:01:03.635Z,85.00
2023-04-07T16:03:32.377Z,78.90
2023-04-07T16:05:59.998Z,77.10
2023-04-07T16:08:27.368Z,77.50
2023-04-07T16:10:54.661Z,75.70
2023-04-07T16:13:21.889Z,73.40
2023-04-07T16:15:49.173Z,72.80
2023-04-07T16:18:16.628Z,74.70
2023-04-07T16:20:43.768Z,77.40
2023-04-07T16:23:10.980Z,79.60
2023-04-07T16:25:38.426Z,82.80
2023-04-07T16:28:05.891Z,84.90
2023-04-07T16:30:33.031Z,87.80
2023-04-07T16:33:00.986Z,89.80
2023-04-07T16:35:28.146Z,91.30
2023-04-07T16:37:55.297Z,92.70
2023-04-07T16:40:22.888Z,94.40
2023-04-07T16:42:50.420Z,95.40
2023-04-07T16:45:17.955Z,97.10
2023-04-07T16:47:45.206Z,98.80
2023-04-07T16:50:20.090Z,99.80
2023-04-07T16:52:48.042Z,99.90
2023-04-07T16:55:15.305Z,99.90
2023-04-07T16:57:42.637Z,99.90
2023-04-07T17:00:10.201Z,99.90
2023-04-07T17:02:37.854Z,99.90
2023-04-07T17:05:05.426Z,99.90
2023-04-07T17:07:32.416Z,99.90
2023-04-07T17:09:59.648Z,99.90
2023-04-07T17:12:28.243Z,99.90
2023-04-07T17:14:55.669Z,99.90
2023-04-07T17:17:24.970Z,99.90
2023-04-07T17:19:52.763Z,99.90
2023-04-07T17:22:20.339Z,99.90
2023-04-07T17:24:47.614Z,99.90
2023-04-07T17:27:14.588Z,99.90
2023-04-07T17:29:42.149Z,99.90
2023-04-07T17:32:09.409Z,99.90
2023-04-07T17:34:37.588Z,99.90
2023-04-07T17:37:04.840Z,99.90
2023-04-07T17:39:31.961Z,99.90
2023-04-07T17:41:59.535Z,99.90
2023-04-07T17:44:27.595Z,99.90
2023-04-07T17:46:55.000Z,99.90
2023-04-07T17:49:22.593Z,99.90
2023-04-07T17:51:50.137Z,99.90
2023-04-07T17:54:17.745Z,99.90
2023-04-07T17:56:45.450Z,99.90
2023-04-07T17:59:12.685Z,99.90
2023-04-07T18:01:40.377Z,99.90
2023-04-07T18:04:08.644Z,99.90
2023-04-07T18:06:39.187Z,99.90
2023-04-07T18:09:07.749Z,99.90
2023-04-07T18:11:35.258Z,99.90
2023-04-07T18:14:02.524Z,99.90
2023-04-07T18:16:29.850Z,99.90
2023-04-07T18:18:57.673Z,99.90
2023-04-07T18:21:25.225Z,99.90
2023-04-07T18:23:52.252Z,99.90
2023-04-07T18:26:20.295Z,99.90
2023-04-07T18:28:48.195Z,99.90
2023-04-07T18:31:16.062Z,99.90
2023-04-07T18:33:43.132Z,99.90
2023-04-07T18:36:17.235Z,99.90
2023-04-07T18:38:44.678Z,99.90
2023-04-07T18:41:12.221Z,99.90
2023-04-07T18:46:20.952Z,99.90
2023-04-07T18:48:48.255Z,99.90
2023-04-07T18:51:16.157Z,99.90
2023-04-07T18:53:43.259Z,99.90
2023-04-07T18:56:11.334Z,99.90
2023-04-07T18:58:44.016Z,99.90
2023-04-07T19:01:13.458Z,99.90
2023-04-07T19:03:42.081Z,99.90
2023-04-07T19:06:19.082Z,99.90
2023-04-07T19:08:48.753Z,99.90
2023-04-07T19:11:16.640Z,99.90
2023-04-07T19:13:43.904Z,99.90
2023-04-07T19:16:14.215Z,99.90
2023-04-07T19:18:42.210Z,99.90
2023-04-07T19:21:09.724Z,99.90
2023-04-07T19:23:46.611Z,99.90
2023-04-07T19:26:19.756Z,99.90
2023-04-07T19:28:48.486Z,99.90
2023-04-07T19:31:16.041Z,99.90
2023-04-07T19:33:43.902Z,99.90
2023-04-07T19:36:11.975Z,99.90
2023-04-07T19:38:39.749Z,99.90
2023-04-07T19:41:07.109Z,99.90
2023-04-07T19:43:34.255Z,99.90
2023-04-07T19:46:02.040Z,99.90
2023-04-07T19:48:39.572Z,99.90
2023-04-07T19:51:07.514Z,99.90
2023-04-07T19:53:35.123Z,99.90
2023-04-07T19:56:07.238Z,99.90
2023-04-07T19:58:34.653Z,99.90
2023-04-07T20:01:04.645Z,99.90
2023-04-07T20:03:32.278Z,99.90
2023-04-07T20:05:59.921Z,99.90
2023-04-07T20:08:27.133Z,99.90
2023-04-07T20:10:54.813Z,99.90
2023-04-07T20:13:23.375Z,99.90
2023-04-07T20:15:50.942Z,99.90
2023-04-07T20:18:18.777Z,99.90
2023-04-07T20:20:46.688Z,99.90
2023-04-07T20:23:16.127Z,99.90
2023-04-07T20:25:47.161Z,99.90
2023-04-07T20:28:14.573Z,99.90
2023-04-07T20:30:42.120Z,99.90
2023-04-07T20:33:11.155Z,99.90
2023-04-07T20:35:40.979Z,99.90
2023-04-07T20:38:11.379Z,99.90
2023-04-07T20:40:48.803Z,99.90
2023-04-07T20:43:18.351Z,99.90
2023-04-07T20:45:59.931Z,99.90
2023-04-07T20:48:28.538Z,99.90
2023-04-07T20:51:01.005Z,99.90
2023-04-07T20:53:28.848Z,99.90
2023-04-07T20:55:59.187Z,99.90
2023-04-07T20:58:27.355Z,99.90
2023-04-07T21:00:59.388Z,99.90
2023-04-07T21:03:28.221Z,99.90
2023-04-07T21:05:57.080Z,99.90
2023-04-07T21:08:24.789Z,99.90
2023-04-07T21:10:56.054Z,99.90
2023-04-07T21:13:23.318Z,99.90
2023-04-07T21:15:51.017Z,99.90
2023-04-07T21:18:19.429Z,99.90
2023-04-07T21:20:47.567Z,99.90
2023-04-07T21:23:14.824Z,99.90
2023-04-07T21:25:41.982Z,99.90
2023-04-07T21:28:09.333Z,99.90
2023-04-07T21:30:44.414Z,99.90
2023-04-07T21:33:15.054Z,99.90
2023-04-07T21:35:43.325Z,99.90
2023-04-07T21:38:11.280Z,99.90
2023-04-07T21:40:41.466Z,99.90
2023-04-07T21:43:08.839Z,99.90
2023-04-07T21:45:38.451Z,99.90
2023-04-07T21:48:05.736Z,99.90
2023-04-07T21:50:33.376Z,99.90
2023-04-07T21:53:06.915Z,99.90
2023-04-07T21:55:37.248Z,99.90
2023-04-07T21:58:07.213Z,99.90
2023-04-07T22:00:35.046Z,99.90
2023-04-07T22:03:06.590Z,99.90
2023-04-07T22:05:34.460Z,99.90
2023-04-07T22:08:03.898Z,99.90
2023-04-07T22:10:32.760Z,99.90
2023-04-07T22:13:00.326Z,99.90
2023-04-07T22:15:27.981Z,99.90
2023-04-07T22:17:59.253Z,99.90
2023-04-07T22:20:28.898Z,99.90
2023-04-07T22:22:57.793Z,99.90
2023-04-07T22:25:25.940Z,99.90
2023-04-07T22:27:53.247Z,99.90
2023-04-07T22:30:25.838Z,99.90
2023-04-07T22:32:53.416Z,99.90
2023-04-07T22:35:20.872Z,99.90
2023-04-07T22:37:51.166Z,99.90
2023-04-07T22:40:19.104Z,99.90
2023-04-07T22:42:46.704Z,99.90
2023-04-07T22:45:14.234Z,99.90
2023-04-07T22:47:44.362Z,99.90
2023-04-07T22:50:12.129Z,99.90
2023-04-07T22:52:42.052Z,99.90
2023-04-07T22:55:09.697Z,99.90
2023-04-07T22:57:37.108Z,99.90
2023-04-07T23:00:05.586Z,99.90
2023-04-07T23:02:33.247Z,99.90
2023-04-07T23:05:00.921Z,99.90
2023-04-07T23:07:28.437Z,99.90
2023-04-07T23:09:55.949Z,99.90
2023-04-07T23:12:23.338Z,99.90
2023-04-07T23:15:04.120Z,99.90
2023-04-07T23:17:31.825Z,99.90
2023-04-07T23:19:59.331Z,99.90
2023-04-07T23:22:26.515Z,99.90
2023-04-07T23:24:54.572Z,99.90
2023-04-07T23:27:22.002Z,99.90
2023-04-07T23:29:51.521Z,99.90
2023-04-07T23:32:21.896Z,99.90
2023-04-07T23:34:49.505Z,99.90
2023-04-07T23:37:16.638Z,99.90
2023-04-07T23:39:44.032Z,99.90
2023-04-07T23:42:11.577Z,99.90
2023-04-07T23:44:38.997Z,99.90
2023-04-07T23:47:06.859Z,99.90
2023-04-07T23:49:34.151Z,99.90
2023-04-07T23:52:02.013Z,99.90
2023-04-07T23:54:29.455Z,99.90
2023-04-07T23:57:00.640Z,99.90
2023-04-07T23:59:28.065Z,99.90
